Time;durP1;ratioP1;P1;durP2;ratioP2;P2;SDS_P1;SDS_P2;PMS_P1;PMS_P2;Temp;Humidity;BMP_temperature;BMP_pressure;BME280_temperature;BME280_humidity;BME280_pressure;Samples;Min_cycle;Max_cycle;Signal;HPM_P1;HPM_P2
2022/04/24 00:00:39;;;;;;;4.73;1.97;;;;;;;11.98;49.40;98794.09;5103639;28;20023;-79
2022/04/24 00:03:04;;;;;;;3.83;1.87;;;;;;;11.95;49.86;98788.38;5119222;28;20043;-78
2022/04/24 00:05:30;;;;;;;5.05;2.00;;;;;;;11.93;49.80;98785.94;5116832;28;20027;-80
2022/04/24 00:07:55;;;;;;;4.72;1.98;;;;;;;11.86;50.00;98785.31;5099818;28;20038;-78
2022/04/24 00:10:21;;;;;;;4.90;2.05;;;;;;;11.81;50.02;98787.97;5119537;28;20089;-79
2022/04/24 00:12:46;;;;;;;4.83;2.23;;;;;;;11.75;49.81;98778.97;5120229;28;20058;-78
2022/04/24 00:15:12;;;;;;;4.60;2.00;;;;;;;11.58;50.53;98780.91;5101825;28;20015;-79
2022/04/24 00:17:37;;;;;;;5.73;2.27;;;;;;;11.61;51.04;98780.41;5120336;28;20059;-78
2022/04/24 00:20:03;;;;;;;5.33;2.30;;;;;;;11.56;50.73;98779.53;5120152;28;20277;-78
2022/04/24 00:22:29;;;;;;;4.25;1.95;;;;;;;11.43;51.05;98778.84;5120347;28;20051;-78
2022/04/24 00:24:54;;;;;;;4.00;1.88;;;;;;;11.48;50.98;98775.38;5121120;28;20074;-79
2022/04/24 00:27:19;;;;;;;4.70;2.07;;;;;;;11.46;51.21;98781.03;5119669;28;20035;-79
2022/04/24 00:29:44;;;;;;;4.00;1.83;;;;;;;11.46;51.38;98778.31;5120000;28;20286;-79
2022/04/24 00:32:10;;;;;;;4.60;2.33;;;;;;;11.35;51.50;98779.28;5119831;28;20027;-79
2022/04/24 00:34:35;;;;;;;4.85;2.15;;;;;;;11.29;51.63;98772.16;5119518;28;20053;-78
2022/04/24 00:37:01;;;;;;;5.67;2.13;;;;;;;11.26;52.05;98769.19;5119516;28;20028;-78
2022/04/24 00:39:26;;;;;;;6.43;2.25;;;;;;;11.21;52.09;98775.31;5119439;28;20378;-78
2022/04/24 00:41:52;;;;;;;7.38;2.65;;;;;;;11.16;51.87;98771.72;5119446;28;20044;-78
2022/04/24 00:44:18;;;;;;;5.13;1.95;;;;;;;11.05;52.67;98770.78;5119488;28;20028;-77
2022/04/24 00:46:57;;;;;;;4.95;2.10;;;;;;;11.02;52.62;98773.97;5119376;28;20065;-78
2022/04/24 00:49:23;;;;;;;4.50;2.17;;;;;;;11.06;52.73;98769.72;5118961;28;20055;-78
2022/04/24 00:51:49;;;;;;;4.85;2.28;;;;;;;10.95;52.70;98767.91;5118995;28;20058;-78
2022/04/24 00:54:15;;;;;;;;;;;;;;;10.94;53.06;98782.44;5119590;28;20040;-79
2022/04/24 00:56:42;;;;;;;4.55;2.25;;;;;;;10.89;52.88;98779.72;5118411;28;19922;-78
2022/04/24 00:59:09;;;;;;;4.53;2.00;;;;;;;10.81;53.12;98783.63;5101030;28;20027;-78
2022/04/24 01:01:36;;;;;;;4.70;2.30;;;;;;;10.76;53.43;98770.88;5119057;28;20092;-78
2022/04/24 01:04:05;;;;;;;5.43;2.30;;;;;;;10.77;53.26;98775.22;5118377;28;20042;-78
2022/04/24 01:06:33;;;;;;;5.40;2.55;;;;;;;10.78;53.41;98774.16;5118555;28;20039;-78
2022/04/24 01:09:15;;;;;;;4.30;2.03;;;;;;;10.73;53.62;98773.28;5101425;28;20116;-79
2022/04/24 01:11:42;;;;;;;5.88;2.42;;;;;;;10.77;53.43;98771.69;5101191;28;20019;-78
2022/04/24 01:14:07;;;;;;;4.10;1.98;;;;;;;10.64;53.14;98772.84;5119804;28;20032;-78
2022/04/24 01:16:34;;;;;;;5.10;2.40;;;;;;;10.65;53.17;98774.50;5119700;28;20072;-79
2022/04/24 01:19:00;;;;;;;4.63;2.05;;;;;;;10.68;53.75;98768.63;5119230;28;20028;-78
2022/04/24 01:21:25;;;;;;;4.90;2.10;;;;;;;10.58;53.90;98763.06;5119025;28;20531;-78
2022/04/24 01:23:51;;;;;;;4.82;2.30;;;;;;;10.67;53.64;98775.06;5119107;28;20401;-78
2022/04/24 01:26:16;;;;;;;5.43;2.45;;;;;;;10.57;54.35;98776.78;5101748;28;20320;-78
2022/04/24 01:28:41;;;;;;;5.10;2.13;;;;;;;10.51;54.34;98767.81;5120397;28;20066;-78
2022/04/24 01:31:07;;;;;;;4.40;2.20;;;;;;;10.52;54.22;98774.81;5125221;28;20035;-79
2022/04/24 01:33:32;;;;;;;5.33;2.30;;;;;;;10.43;54.66;98766.31;5125681;28;20285;-78
2022/04/24 01:35:58;;;;;;;5.78;2.50;;;;;;;10.39;54.75;98767.84;5126347;28;20031;-79
2022/04/24 01:38:23;;;;;;;4.32;2.33;;;;;;;10.41;55.13;98773.00;5126610;28;20096;-78
2022/04/24 01:40:48;;;;;;;4.65;2.50;;;;;;;10.30;55.19;98766.66;5126008;28;20031;-78
2022/04/24 01:43:16;;;;;;;5.97;2.37;;;;;;;10.21;55.38;98776.16;5125545;28;20036;-78
2022/04/24 01:45:42;;;;;;;4.88;2.25;;;;;;;10.14;55.79;98780.88;5122922;28;20016;-79
2022/04/24 01:48:07;;;;;;;5.80;3.00;;;;;;;10.07;56.35;98781.00;5123859;28;20108;-78
2022/04/24 01:50:33;;;;;;;5.22;2.63;;;;;;;9.97;56.80;98774.63;5122322;28;20031;-79
2022/04/24 01:52:58;;;;;;;6.13;2.83;;;;;;;9.88;57.08;98774.19;5122739;28;20053;-78
2022/04/24 01:55:23;;;;;;;5.77;2.43;;;;;;;9.80;57.52;98771.91;5101554;28;20032;-78
2022/04/24 01:57:49;;;;;;;5.47;2.47;;;;;;;9.75;57.69;98771.78;5118871;28;20379;-78
2022/04/24 02:00:14;;;;;;;6.20;2.87;;;;;;;9.86;57.43;98780.88;5118897;28;20102;-78
2022/04/24 02:02:39;;;;;;;6.35;2.70;;;;;;;9.68;57.53;98779.19;5118483;28;20026;-77
2022/04/24 02:05:05;;;;;;;6.10;3.10;;;;;;;9.63;58.06;98774.53;5119390;28;20489;-78
2022/04/24 02:07:31;;;;;;;8.20;2.50;;;;;;;9.60;57.71;98776.88;5100172;28;20081;-79
2022/04/24 02:09:56;;;;;;;5.47;2.53;;;;;;;9.56;58.54;98775.72;5117507;28;20031;-78
2022/04/24 02:12:21;;;;;;;6.00;2.67;;;;;;;9.51;58.12;98770.22;5116325;28;20039;-78
2022/04/24 02:14:46;;;;;;;5.50;2.70;;;;;;;9.53;58.50;98768.13;5119615;28;20024;-78
2022/04/24 02:17:12;;;;;;;4.90;2.53;;;;;;;9.50;58.70;98774.78;5121104;28;20458;-78
2022/04/24 02:19:37;;;;;;;5.53;2.73;;;;;;;9.48;58.58;98776.09;5121463;28;20031;-78
2022/04/24 02:22:03;;;;;;;5.87;2.37;;;;;;;9.45;58.46;98769.31;5102951;28;20055;-77
2022/04/24 02:24:28;;;;;;;4.88;2.42;;;;;;;9.40;58.84;98772.72;5119815;28;20027;-78
2022/04/24 02:26:54;;;;;;;5.78;2.80;;;;;;;9.39;58.90;98771.09;5120338;28;20053;-78
2022/04/24 02:29:19;;;;;;;7.00;2.85;;;;;;;9.37;58.83;98769.69;5120977;28;20478;-78
2022/04/24 02:31:45;;;;;;;5.25;2.63;;;;;;;9.34;59.17;98773.66;5120324;28;20085;-79
2022/04/24 02:34:10;;;;;;;5.20;2.55;;;;;;;9.29;59.13;98770.88;5119994;28;20551;-78
2022/04/24 02:36:36;;;;;;;5.07;2.63;;;;;;;9.27;58.89;98770.31;5120659;28;20027;-78
2022/04/24 02:39:01;;;;;;;6.30;2.90;;;;;;;9.32;58.87;98770.38;5120270;28;20450;-78
2022/04/24 02:41:29;;;;;;;6.43;3.03;;;;;;;9.22;59.26;98770.19;5119096;28;20027;-78
2022/04/24 02:43:55;;;;;;;6.32;2.90;;;;;;;9.15;59.25;98766.78;5119983;28;20035;-77
2022/04/24 02:46:20;;;;;;;5.90;2.77;;;;;;;9.12;59.97;98769.16;5119567;28;20028;-78
2022/04/24 02:48:46;;;;;;;6.18;3.10;;;;;;;9.00;60.13;98767.28;5100717;28;20146;-78
2022/04/24 02:51:11;;;;;;;6.00;2.73;;;;;;;9.00;60.19;98771.84;5119096;28;20040;-78
2022/04/24 02:53:36;;;;;;;5.90;2.60;;;;;;;8.89;60.66;98772.66;5121914;28;20287;-79
2022/04/24 02:56:02;;;;;;;6.37;2.67;;;;;;;8.88;60.51;98771.84;5125154;28;20035;-78
2022/04/24 02:58:27;;;;;;;5.80;2.83;;;;;;;8.95;60.48;98774.44;5133537;28;20429;-79
2022/04/24 03:00:54;;;;;;;5.90;2.85;;;;;;;8.82;61.29;98770.09;5124218;28;20031;-78
2022/04/24 03:03:20;;;;;;;6.40;3.22;;;;;;;8.73;61.25;98768.81;5122098;28;20043;-78
2022/04/24 03:05:46;;;;;;;4.35;2.17;;;;;;;8.77;60.81;98769.19;5121877;28;20036;-78
2022/04/24 03:08:12;;;;;;;6.82;2.67;;;;;;;8.69;61.40;98773.84;5121609;28;20032;-78
2022/04/24 03:10:38;;;;;;;8.32;3.70;;;;;;;8.69;61.72;98773.03;5121418;28;20038;-78
2022/04/24 03:13:03;;;;;;;7.07;3.35;;;;;;;8.60;62.00;98763.66;5121035;28;20470;-78
2022/04/24 03:15:29;;;;;;;7.22;3.45;;;;;;;8.68;61.54;98766.00;5118756;28;20038;-77
2022/04/24 03:17:54;;;;;;;5.70;3.03;;;;;;;8.61;62.08;98770.66;5118668;28;20040;-77
2022/04/24 03:20:21;;;;;;;5.25;2.92;;;;;;;8.57;62.28;98772.19;5118226;28;20039;-77
2022/04/24 03:22:46;;;;;;;;;;;;;;;8.55;62.12;98777.81;5118379;28;20043;-77
2022/04/24 03:25:11;;;;;;;6.50;3.45;;;;;;;8.50;62.38;98766.13;5117014;28;19915;-78
2022/04/24 03:27:38;;;;;;;6.13;3.00;;;;;;;8.42;62.93;98774.53;5117799;28;20526;-77
2022/04/24 03:30:05;;;;;;;8.07;3.22;;;;;;;8.57;62.48;98762.28;5117952;28;20069;-78
2022/04/24 03:32:32;;;;;;;7.10;3.50;;;;;;;8.52;62.87;98764.00;5100206;28;20047;-78
2022/04/24 03:34:58;;;;;;;6.80;3.20;;;;;;;8.46;62.64;98768.44;5118770;28;20038;-77
2022/04/24 03:37:23;;;;;;;7.32;3.28;;;;;;;8.34;63.60;98764.94;5118044;28;20031;-77
2022/04/24 03:39:48;;;;;;;7.35;3.50;;;;;;;8.40;63.32;98772.06;5117904;28;20044;-77
2022/04/24 03:42:14;;;;;;;10.63;3.43;;;;;;;8.32;63.49;98764.34;5123573;28;20027;-77
2022/04/24 03:44:39;;;;;;;7.93;3.40;;;;;;;8.33;63.50;98768.66;5118862;28;20040;-77
2022/04/24 03:47:06;;;;;;;8.75;3.80;;;;;;;8.30;63.71;98766.41;5117451;28;20024;-77
2022/04/24 03:49:31;;;;;;;6.63;3.45;;;;;;;8.32;63.80;98764.34;5117023;28;20036;-76
2022/04/24 03:51:57;;;;;;;7.22;3.53;;;;;;;8.25;64.03;98766.25;5116534;28;20381;-77
2022/04/24 03:54:22;;;;;;;6.90;3.33;;;;;;;8.20;63.96;98755.44;5116496;28;20043;-76
2022/04/24 03:56:48;;;;;;;8.07;3.80;;;;;;;8.14;64.50;98767.06;5116374;28;20032;-77
2022/04/24 03:59:13;;;;;;;6.97;3.47;;;;;;;8.18;64.48;98760.19;5116411;28;20330;-77
2022/04/24 04:01:39;;;;;;;6.78;3.17;;;;;;;8.10;64.99;98771.25;5117169;28;20061;-76
2022/04/24 04:04:04;;;;;;;7.33;3.70;;;;;;;8.13;64.63;98763.56;5117337;28;20051;-76
2022/04/24 04:06:30;;;;;;;9.32;4.00;;;;;;;7.99;65.26;98771.00;5117518;28;20268;-76
2022/04/24 04:08:56;;;;;;;9.70;4.15;;;;;;;7.91;65.92;98782.03;5117162;28;20070;-76
2022/04/24 04:11:21;;;;;;;7.95;3.30;;;;;;;7.93;66.06;98771.91;5117384;28;20524;-76
2022/04/24 04:13:46;;;;;;;6.83;3.03;;;;;;;7.91;66.16;98776.66;5117067;28;20027;-77
2022/04/24 04:16:12;;;;;;;7.82;3.67;;;;;;;7.88;65.89;98785.16;5099173;28;20019;-77
2022/04/24 04:18:38;;;;;;;7.65;3.95;;;;;;;7.83;66.31;98776.19;5116184;28;20074;-77
2022/04/24 04:21:03;;;;;;;8.32;4.22;;;;;;;7.81;66.54;98773.72;5116839;28;20039;-77
2022/04/24 04:23:28;;;;;;;9.07;4.18;;;;;;;7.79;66.67;98783.03;5116132;28;20393;-77
2022/04/24 04:25:54;;;;;;;7.30;3.37;;;;;;;7.78;66.45;98776.03;5116415;28;20077;-79
2022/04/24 04:28:19;;;;;;;7.93;4.20;;;;;;;7.79;66.42;98783.03;5117248;28;20055;-77
2022/04/24 04:30:44;;;;;;;7.73;3.80;;;;;;;7.79;66.40;98778.50;5117048;28;20419;-78
2022/04/24 04:33:10;;;;;;;7.10;3.50;;;;;;;7.78;67.00;98778.72;5123137;28;20028;-83
2022/04/24 04:35:36;;;;;;;7.40;3.15;;;;;;;7.73;67.08;98782.06;5127281;28;20027;-82
2022/04/24 04:38:02;;;;;;;5.95;3.42;;;;;;;7.71;67.46;98791.38;5110984;28;20031;-81
2022/04/24 04:40:27;;;;;;;7.15;3.03;;;;;;;7.71;67.57;98786.00;5125621;28;20032;-81
2022/04/24 04:42:53;;;;;;;7.45;3.45;;;;;;;7.66;67.32;98792.06;5117601;28;20070;-81
2022/04/24 04:45:18;;;;;;;8.00;3.90;;;;;;;7.73;67.39;98794.66;5098978;28;20044;-80
2022/04/24 04:47:47;;;;;;;7.73;3.60;;;;;;;7.66;67.61;98792.91;5117667;28;20114;-79
2022/04/24 04:50:12;;;;;;;7.82;3.65;;;;;;;7.71;67.69;98796.75;5098896;28;20038;-79
2022/04/24 04:52:38;;;;;;;7.15;3.92;;;;;;;7.66;67.79;98795.56;5116205;28;20098;-80
2022/04/24 04:55:03;;;;;;;6.77;3.40;;;;;;;7.63;67.51;98800.56;5117152;28;20058;-82
2022/04/24 04:57:29;;;;;;;7.05;3.58;;;;;;;7.70;67.69;98804.00;5098138;28;20070;-80
2022/04/24 04:59:55;;;;;;;6.95;3.33;;;;;;;7.69;67.88;98810.41;5097906;28;20088;-79
2022/04/24 05:02:20;;;;;;;7.93;3.20;;;;;;;7.73;67.67;98808.88;5116460;28;20080;-80
2022/04/24 05:04:45;;;;;;;6.65;3.35;;;;;;;7.72;67.74;98823.31;5098431;28;20055;-80
2022/04/24 05:07:11;;;;;;;8.20;3.47;;;;;;;7.74;67.46;98815.06;5116438;28;20027;-80
2022/04/24 05:09:37;;;;;;;7.50;3.35;;;;;;;7.78;67.77;98817.06;5116540;28;20035;-79
2022/04/24 05:12:03;;;;;;;7.97;3.58;;;;;;;7.80;67.28;98812.31;5116463;28;20039;-79
2022/04/24 05:14:29;;;;;;;6.55;2.70;;;;;;;7.78;67.49;98821.63;5116155;28;20103;-79
2022/04/24 05:16:54;;;;;;;7.60;3.40;;;;;;;7.81;67.66;98821.16;5116675;28;20036;-79
2022/04/24 05:19:19;;;;;;;6.40;3.13;;;;;;;7.83;67.49;98822.59;5116525;28;20024;-82
2022/04/24 05:21:45;;;;;;;7.13;3.23;;;;;;;7.79;67.67;98824.06;5115997;28;20065;-79
2022/04/24 05:24:10;;;;;;;6.60;3.10;;;;;;;7.87;67.61;98821.09;5116264;28;20035;-79
2022/04/24 05:26:37;;;;;;;7.03;3.40;;;;;;;7.91;67.01;98819.56;5115831;28;20039;-81
2022/04/24 05:29:03;;;;;;;8.50;3.45;;;;;;;7.90;67.61;98819.78;5116060;28;20043;-83
2022/04/24 05:31:30;;;;;;;8.18;3.42;;;;;;;7.94;67.11;98821.81;5115467;28;20032;-77
2022/04/24 05:33:55;;;;;;;8.00;3.83;;;;;;;8.02;67.02;98820.69;5115520;28;20030;-77
2022/04/24 05:36:21;;;;;;;6.80;3.58;;;;;;;7.99;67.05;98823.81;5115610;28;20381;-77
2022/04/24 05:38:46;;;;;;;5.93;2.90;;;;;;;8.06;66.86;98829.88;5114735;28;20114;-77
2022/04/24 05:41:11;;;;;;;6.23;2.97;;;;;;;8.17;66.29;98825.63;5114228;28;20106;-76
2022/04/24 05:43:37;;;;;;;6.73;3.27;;;;;;;8.07;66.68;98830.72;5114284;28;20107;-77
2022/04/24 05:46:02;;;;;;;6.47;3.10;;;;;;;8.13;66.34;98829.81;5096167;28;20047;-77
2022/04/24 05:48:27;;;;;;;7.40;3.00;;;;;;;8.10;66.27;98839.13;5114688;28;20027;-77
2022/04/24 05:50:53;;;;;;;5.47;2.90;;;;;;;8.23;66.09;98830.91;5115264;28;20028;-78
2022/04/24 05:53:18;;;;;;;6.60;3.00;;;;;;;8.21;66.03;98834.88;5115575;28;20035;-78
2022/04/24 05:55:43;;;;;;;5.67;2.83;;;;;;;8.28;65.59;98835.56;5116040;28;20038;-80
2022/04/24 05:58:09;;;;;;;6.30;2.83;;;;;;;8.50;65.52;98841.28;5117477;28;20057;-82
2022/04/24 06:00:36;;;;;;;6.33;2.63;;;;;;;8.42;65.17;98834.34;5098347;28;20071;-82
2022/04/24 06:03:02;;;;;;;6.57;3.53;;;;;;;8.31;65.32;98838.63;5116636;28;20474;-81
2022/04/24 06:05:27;;;;;;;8.27;2.83;;;;;;;8.37;65.49;98834.25;5118010;28;20067;-81
2022/04/24 06:07:54;;;;;;;6.85;2.63;;;;;;;8.54;65.00;98842.47;5115882;28;20070;-81
2022/04/24 06:10:21;;;;;;;9.35;2.92;;;;;;;8.66;64.63;98827.19;5116615;28;20106;-81
2022/04/24 06:12:49;;;;;;;5.60;2.65;;;;;;;8.57;64.26;98836.63;5122172;28;20036;-80
2022/04/24 06:15:15;;;;;;;13.13;3.45;;;;;;;8.66;64.14;98838.75;5130808;28;20442;-81
2022/04/24 06:17:46;;;;;;;5.65;2.70;;;;;;;8.66;64.20;98840.59;5132448;28;20111;-80
2022/04/24 06:20:13;;;;;;;5.53;2.88;;;;;;;8.74;63.50;98837.59;5132153;28;20027;-80
2022/04/24 06:22:45;;;;;;;7.05;3.40;;;;;;;8.81;63.58;98829.41;5114121;28;20036;-80
2022/04/24 06:25:22;;;;;;;12.30;2.70;;;;;;;8.70;63.59;98833.72;5133126;28;20028;-81
2022/04/24 06:27:52;;;;;;;6.05;2.65;;;;;;;8.90;63.29;98836.91;5105310;28;20089;-81
2022/04/24 06:30:19;;;;;;;7.43;2.72;;;;;;;9.02;62.60;98834.22;5101140;28;20410;-81
2022/04/24 06:32:45;;;;;;;6.25;3.08;;;;;;;9.16;62.44;98835.59;5101468;28;20016;-83
2022/04/24 06:35:15;;;;;;;5.78;2.97;;;;;;;9.24;61.97;98840.66;5100920;28;20034;-82
2022/04/24 06:37:42;;;;;;;7.25;3.17;;;;;;;9.45;61.30;98833.03;5118696;28;20038;-83
2022/04/24 06:40:09;;;;;;;7.30;2.40;;;;;;;9.53;61.25;98846.09;5099510;28;20084;-83
2022/04/24 06:42:35;;;;;;;5.57;2.75;;;;;;;9.77;59.99;98836.09;5118634;28;20225;-83
2022/04/24 06:45:01;;;;;;;6.18;2.85;;;;;;;10.12;59.44;98834.13;5118451;28;20035;-83
2022/04/24 06:47:28;;;;;;;6.78;3.03;;;;;;;10.62;57.51;98842.31;5118769;28;20122;-83
2022/04/24 06:49:54;;;;;;;;;;;;;;;10.40;58.02;98842.19;5119684;28;20051;-82
2022/04/24 06:52:20;;;;;;;7.55;2.97;;;;;;;10.35;57.93;98846.69;5123071;28;19907;-83
2022/04/24 06:54:45;;;;;;;6.50;3.17;;;;;;;10.71;56.77;98846.25;5099491;28;20114;-83
2022/04/24 06:57:10;;;;;;;6.75;3.25;;;;;;;10.55;57.66;98841.66;5099424;28;20074;-83
2022/04/24 06:59:36;;;;;;;6.47;2.90;;;;;;;10.52;57.09;98839.47;5101019;28;20032;-81
2022/04/24 07:02:01;;;;;;;8.20;3.13;;;;;;;10.32;57.62;98833.72;5120356;28;20370;-84
2022/04/24 07:04:30;;;;;;;7.27;2.50;;;;;;;10.13;59.24;98845.69;5120452;28;20269;-84
2022/04/24 07:06:55;;;;;;;7.78;3.47;;;;;;;10.21;58.33;98834.59;5120938;28;20284;-82
2022/04/24 07:09:20;;;;;;;6.27;2.70;;;;;;;10.19;58.41;98844.78;5120692;28;20031;-83
2022/04/24 07:11:47;;;;;;;6.43;3.33;;;;;;;10.42;58.04;98847.34;5119866;28;20119;-83
2022/04/24 07:14:12;;;;;;;6.97;3.25;;;;;;;10.24;57.95;98839.47;5118474;28;20073;-82
2022/04/24 07:16:37;;;;;;;5.73;2.73;;;;;;;10.53;57.64;98846.47;5119044;28;20477;-81
2022/04/24 07:19:03;;;;;;;8.00;2.77;;;;;;;10.46;57.79;98853.06;5118726;28;20039;-80
2022/04/24 07:21:28;;;;;;;7.32;3.53;;;;;;;10.59;57.19;98855.44;5118635;28;20023;-81
2022/04/24 07:23:53;;;;;;;5.43;2.83;;;;;;;10.76;56.39;98861.66;5118565;28;20061;-80
2022/04/24 07:26:19;;;;;;;7.50;3.40;;;;;;;10.71;56.86;98856.22;5117819;28;20270;-81
2022/04/24 07:28:44;;;;;;;7.13;2.77;;;;;;;10.60;56.82;98849.81;5119091;28;20477;-82
2022/04/24 07:31:11;;;;;;;7.17;3.07;;;;;;;10.76;56.59;98851.69;5122587;28;20024;-82
2022/04/24 07:33:37;;;;;;;9.35;3.60;;;;;;;10.69;57.05;98856.44;5101287;28;20035;-83
2022/04/24 07:36:04;;;;;;;6.80;2.97;;;;;;;10.92;56.29;98846.59;5119749;28;20133;-81
2022/04/24 07:38:30;;;;;;;5.88;3.03;;;;;;;10.79;56.45;98851.22;5118592;28;20020;-81
2022/04/24 07:40:55;;;;;;;6.45;2.90;;;;;;;10.94;56.14;98857.91;5100314;28;20032;-81
2022/04/24 07:43:20;;;;;;;6.18;3.15;;;;;;;10.87;56.42;98868.88;5118837;28;20085;-81
2022/04/24 07:45:47;;;;;;;6.47;3.20;;;;;;;10.94;56.14;98866.81;5117815;28;20462;-79
2022/04/24 07:48:14;;;;;;;7.25;3.42;;;;;;;11.14;55.46;98869.00;5115890;28;20062;-77
2022/04/24 07:50:45;;;;;;;6.80;2.85;;;;;;;11.28;54.97;98861.41;5116045;28;20385;-77
2022/04/24 07:53:11;;;;;;;5.50;2.95;;;;;;;11.69;53.93;98862.78;5115633;28;20107;-77
2022/04/24 07:55:39;;;;;;;7.38;2.70;;;;;;;11.55;54.44;98870.44;5115813;28;20112;-77
2022/04/24 07:58:05;;;;;;;5.85;3.05;;;;;;;11.63;53.99;98863.81;5115877;28;20370;-78
2022/04/24 08:00:33;;;;;;;8.45;3.60;;;;;;;11.65;53.66;98862.47;5115698;28;20065;-78
2022/04/24 08:03:03;;;;;;;6.93;3.50;;;;;;;11.54;53.47;98876.06;5115289;28;20036;-77
2022/04/24 08:05:49;;;;;;;7.28;3.08;;;;;;;11.74;53.83;98870.94;5115313;28;20047;-77
2022/04/24 08:08:17;;;;;;;7.63;3.72;;;;;;;11.86;53.58;98868.16;5116154;28;20023;-78
2022/04/24 08:10:45;;;;;;;7.32;3.33;;;;;;;11.79;53.37;98881.84;5116837;28;20077;-78
2022/04/24 08:13:11;;;;;;;8.25;3.33;;;;;;;11.80;52.92;98880.78;5115744;28;20386;-78
2022/04/24 08:15:37;;;;;;;6.10;2.97;;;;;;;11.83;52.97;98874.88;5117719;28;20035;-78
2022/04/24 08:18:03;;;;;;;;;;;;;;;11.85;52.84;98875.44;5116624;28;20347;-78
2022/04/24 08:20:29;;;;;;;6.22;3.05;;;;;;;11.81;52.84;98874.31;5116324;28;19914;-78
2022/04/24 08:22:55;;;;;;;;;;;;;;;12.02;52.75;98876.19;5116120;28;20059;-78
2022/04/24 08:25:22;;;;;;;7.43;3.33;;;;;;;11.83;52.27;98878.38;5116798;28;20362;-78
2022/04/24 08:27:49;;;;;;;7.07;3.33;;;;;;;12.06;52.02;98865.69;5116717;28;20038;-78
2022/04/24 08:30:18;;;;;;;6.18;3.08;;;;;;;12.10;52.54;98870.34;5116811;28;20067;-84
2022/04/24 08:32:45;;;;;;;7.10;3.60;;;;;;;12.36;51.81;98867.94;5117358;28;20085;-78
2022/04/24 08:35:11;;;;;;;;;;;;;;;12.35;51.73;98861.72;5117847;28;20031;-78
2022/04/24 08:37:36;;;;;;;6.50;3.38;;;;;;;12.54;50.97;98862.16;5118306;28;19916;-80
2022/04/24 08:40:05;;;;;;;6.35;3.20;;;;;;;12.21;51.88;98862.34;5116996;28;20034;-81
2022/04/24 08:42:32;;;;;;;7.97;3.80;;;;;;;12.51;51.10;98854.59;5116629;28;20093;-79
2022/04/24 08:44:58;;;;;;;10.73;3.42;;;;;;;12.84;50.19;98851.66;5117263;28;20036;-82
2022/04/24 08:47:25;;;;;;;7.30;3.38;;;;;;;12.87;49.96;98858.44;5098863;28;20084;-79
2022/04/24 08:49:58;;;;;;;7.18;3.95;;;;;;;12.97;50.13;98852.28;5117058;28;20032;-80
2022/04/24 08:52:25;;;;;;;7.13;3.45;;;;;;;12.95;50.29;98865.22;5117772;28;20107;-80
2022/04/24 08:54:52;;;;;;;8.00;3.78;;;;;;;13.15;50.13;98855.41;5116994;28;20410;-79
2022/04/24 08:57:27;;;;;;;5.50;2.72;;;;;;;13.24;49.38;98857.66;5117651;28;20065;-79
2022/04/24 08:59:57;;;;;;;7.53;3.65;;;;;;;13.22;49.66;98860.63;5100146;28;20028;-83
2022/04/24 09:02:22;;;;;;;8.48;3.55;;;;;;;12.95;49.26;98865.22;5118081;28;20027;-78
2022/04/24 09:04:48;;;;;;;8.40;3.63;;;;;;;12.99;49.30;98864.47;5115693;28;20381;-76
2022/04/24 09:07:17;;;;;;;7.85;3.80;;;;;;;13.30;48.91;98862.00;5114663;28;20019;-77
2022/04/24 09:09:53;;;;;;;6.80;3.33;;;;;;;13.61;48.12;98863.03;5114569;28;20027;-78
2022/04/24 09:12:24;;;;;;;6.32;3.53;;;;;;;13.73;47.94;98866.31;5114948;28;20027;-77
2022/04/24 09:14:52;;;;;;;9.30;4.00;;;;;;;13.59;48.45;98857.06;5114863;28;20036;-76
2022/04/24 09:17:29;;;;;;;5.88;3.08;;;;;;;13.65;47.92;98856.00;5114805;28;20042;-77
2022/04/24 09:19:55;;;;;;;6.72;3.20;;;;;;;13.79;47.78;98859.88;5114841;28;20474;-78
2022/04/24 09:22:22;;;;;;;6.82;3.40;;;;;;;14.04;46.81;98859.97;5114621;28;20035;-78
2022/04/24 09:24:55;;;;;;;7.78;3.47;;;;;;;13.84;47.14;98857.97;5116569;28;20043;-78
2022/04/24 09:27:30;;;;;;;7.40;3.72;;;;;;;13.81;46.99;98846.84;5096315;28;20480;-77
2022/04/24 09:30:15;;;;;;;7.63;3.97;;;;;;;14.14;46.77;98859.19;5114142;28;20093;-77
2022/04/24 09:32:52;;;;;;;6.68;3.25;;;;;;;14.49;46.53;98855.78;5116253;28;20035;-80
2022/04/24 09:35:24;;;;;;;6.30;3.08;;;;;;;14.59;46.19;98851.19;5115139;28;20035;-81
2022/04/24 09:37:49;;;;;;;6.85;3.55;;;;;;;14.74;45.31;98858.53;5115998;28;20036;-79
2022/04/24 09:40:15;;;;;;;8.07;3.50;;;;;;;14.68;45.14;98851.47;5115965;28;20111;-79
2022/04/24 09:42:51;;;;;;;8.90;3.20;;;;;;;14.77;45.01;98847.13;5115968;28;20237;-81
2022/04/24 09:45:23;;;;;;;7.28;3.60;;;;;;;14.58;45.95;98846.84;5098811;28;20038;-79
2022/04/24 09:47:56;;;;;;;9.98;3.67;;;;;;;14.78;45.47;98842.53;5115704;28;20031;-79
2022/04/24 09:50:22;;;;;;;6.90;3.40;;;;;;;14.89;45.20;98855.00;5098285;28;20450;-79
2022/04/24 09:52:48;;;;;;;;;;;;;;;15.10;45.05;98855.81;5115878;28;20462;-79
2022/04/24 09:55:14;;;;;;;7.93;3.97;;;;;;;14.83;44.26;98851.50;5115890;28;19919;-78
2022/04/24 09:57:40;;;;;;;8.93;4.25;;;;;;;14.80;44.23;98853.94;5114853;28;20082;-79
2022/04/24 10:00:06;;;;;;;7.05;3.63;;;;;;;15.01;43.93;98850.13;5115334;28;20451;-78
2022/04/24 10:02:32;;;;;;;8.43;4.10;;;;;;;15.30;43.81;98844.94;5114868;28;20036;-78
2022/04/24 10:04:58;;;;;;;7.78;3.83;;;;;;;15.37;43.81;98842.75;5115663;28;20428;-79
2022/04/24 10:07:24;;;;;;;8.57;4.07;;;;;;;15.43;43.07;98846.25;5096963;28;20118;-79
2022/04/24 10:09:49;;;;;;;6.83;3.57;;;;;;;15.60;43.03;98844.88;5115765;28;20047;-79
2022/04/24 10:12:20;;;;;;;7.80;4.13;;;;;;;15.52;42.77;98848.16;5117156;28;20266;-79
2022/04/24 10:14:53;;;;;;;7.07;3.78;;;;;;;15.64;43.07;98856.03;5117872;28;20462;-80
2022/04/24 10:17:31;;;;;;;8.35;4.20;;;;;;;15.75;42.00;98849.47;5118834;28;20032;-79
2022/04/24 10:20:31;;;;;;;7.53;3.47;;;;;;;15.43;42.13;98855.22;5117674;28;20043;-84
2022/04/24 10:22:58;;;;;;;8.05;3.95;;;;;;;15.46;42.43;98853.84;5099113;28;20038;-79
2022/04/24 10:25:42;;;;;;;8.43;3.80;;;;;;;15.93;41.99;98858.94;5099360;28;20038;-80
2022/04/24 10:29:19;;;;;;;7.67;4.03;;;;;;;15.76;41.84;98858.44;5132626;27;20229;-79
2022/04/24 10:31:46;;;;;;;8.60;4.45;;;;;;;15.87;41.71;98849.16;5134202;27;20035;-80
2022/04/24 10:34:13;;;;;;;9.27;4.43;;;;;;;15.57;42.07;98853.63;5132814;28;20031;-78
2022/04/24 10:36:59;;;;;;;7.55;3.83;;;;;;;15.65;42.50;98859.53;5134031;28;20054;-79
2022/04/24 10:39:27;;;;;;;7.25;3.92;;;;;;;16.01;41.42;98855.63;5134361;27;20031;-79
2022/04/24 10:41:58;;;;;;;9.10;3.88;;;;;;;15.90;40.82;98859.47;5133426;27;20087;-79
2022/04/24 10:44:24;;;;;;;7.05;3.78;;;;;;;15.92;40.50;98858.13;5133360;27;20042;-78
2022/04/24 10:46:50;;;;;;;6.93;3.53;;;;;;;16.08;40.94;98858.84;5132832;27;20027;-77
2022/04/24 10:49:20;;;;;;;8.23;3.83;;;;;;;16.06;40.89;98865.66;5133312;27;20028;-77
2022/04/24 10:52:00;;;;;;;7.95;4.07;;;;;;;16.10;40.92;98864.00;5133699;27;20035;-77
2022/04/24 10:54:34;;;;;;;8.30;4.22;;;;;;;15.99;40.89;98863.22;5135788;27;20051;-79
2022/04/24 10:57:00;;;;;;;10.40;4.72;;;;;;;16.11;40.82;98876.50;5137086;27;20069;-77
2022/04/24 10:59:26;;;;;;;6.43;3.63;;;;;;;16.24;40.63;98865.84;5137542;27;20035;-77
2022/04/24 11:01:54;;;;;;;6.00;3.38;;;;;;;16.18;40.08;98877.00;5137809;27;20385;-78
2022/04/24 11:04:21;;;;;;;7.45;4.07;;;;;;;16.01;40.81;98865.66;5137629;27;20028;-77
2022/04/24 11:07:00;;;;;;;6.72;3.55;;;;;;;16.35;40.06;98871.22;5136664;27;20112;-78
2022/04/24 11:09:36;;;;;;;5.90;3.30;;;;;;;16.30;40.14;98864.69;5132805;28;20027;-79
2022/04/24 11:12:05;;;;;;;6.50;3.38;;;;;;;16.58;39.83;98865.09;5132786;27;20116;-78
2022/04/24 11:14:30;;;;;;;6.07;3.13;;;;;;;16.46;39.60;98875.53;5116268;27;20111;-78
2022/04/24 11:16:57;;;;;;;6.38;3.63;;;;;;;16.38;39.48;98867.94;5112446;28;20030;-78
2022/04/24 11:19:27;;;;;;;6.32;3.60;;;;;;;16.42;39.62;98860.84;5112121;28;20511;-78
2022/04/24 11:22:00;;;;;;;6.50;3.30;;;;;;;16.51;39.34;98865.41;5111542;28;20039;-77
2022/04/24 11:24:31;;;;;;;6.03;3.28;;;;;;;16.24;38.92;98879.44;5111789;28;20135;-77
2022/04/24 11:27:00;;;;;;;5.70;3.38;;;;;;;15.95;39.63;98876.56;5112587;28;20031;-78
2022/04/24 11:29:26;;;;;;;6.65;3.58;;;;;;;16.08;39.93;98861.56;5133963;28;20039;-81
2022/04/24 11:31:54;;;;;;;8.00;3.75;;;;;;;16.23;39.81;98863.41;5133696;28;20058;-78
2022/04/24 11:34:21;;;;;;;6.55;3.47;;;;;;;16.39;39.19;98873.09;5134064;28;20039;-78
2022/04/24 11:36:49;;;;;;;7.70;3.38;;;;;;;16.08;39.92;98869.72;5133968;28;20119;-78
2022/04/24 11:39:16;;;;;;;6.70;3.50;;;;;;;16.08;39.65;98866.19;5126476;28;20029;-79